Arctic Taglu — CY8968 — position and weather

sailwx.info

Track history (hours):
 
Tides and Currents Weather Stations Pressure Air Temp Water Temp Dewpoint Dewpoint Depression Visibility Wind Speed Wind Dir Waves Ship Positions

Arctic Taglu

Last reported at 2016-Sep-24 18:29 UTC. Time now 2016-Sep-25 07:07 UTC.
Position N 49°08' W 123°03'.

Length 33 m; draft 6 m.

Type: Tug. MMSI: 316003483.

Date/timePositionNaut miles runAvg speedWind from/ knotsBaromVisibWave heightAir tempDewpointWater temp
2016-Sep-24 18:29N 49°08' W 123°03'0 0.4
2016-Sep-24 17:33N 49°09' W 123°02'0 0.0
2016-Sep-24 16:33N 49°09' W 123°02'13 6.3
2016-Sep-24 14:33N 49°03' W 123°20'18 8.8
2016-Sep-24 12:33N 48°45' W 123°22'4 2.1
2016-Sep-24 10:33N 48°41' W 123°24'4 4.0
2016-Sep-24 09:33N 48°45' W 123°21'27 4.5
2016-Sep-24 03:33N 49°09' W 123°02'0 0.0
2016-Sep-24 02:33N 49°09' W 123°02'0 0.0
2016-Sep-24 01:33N 49°09' W 123°02'0 0.0
2016-Sep-24 00:33N 49°09' W 123°02'0 0.0
2016-Sep-23 19:33N 49°09' W 123°02'0 0.0
2016-Sep-23 17:33N 49°09' W 123°02'3 3.4
2016-Sep-23 16:33N 49°07' W 123°06'5 5.2
2016-Sep-23 15:33N 49°08' W 123°14'13 6.5
2016-Sep-23 13:33N 48°55' W 123°18'10 2.6
2016-Sep-23 09:33N 48°45' W 123°21'23 7.7
2016-Sep-23 06:33N 49°07' W 123°09'5 2.4
2016-Sep-23 04:33N 49°09' W 123°02'0 0.0
2016-Sep-23 03:33N 49°09' W 123°02'0 0.0
2016-Sep-23 02:33N 49°09' W 123°02'0 0.0
2016-Sep-23 01:33N 49°09' W 123°02'0 0.0
2016-Sep-23 00:33N 49°09' W 123°02'0 0.0
2016-Sep-22 23:33N 49°09' W 123°02'0 0.0
2016-Sep-22 20:33N 49°09' W 123°02'25 3.1
2016-Sep-22 12:33N 48°47' W 123°21'22 2.7
2016-Sep-22 04:33N 49°07' W 123°06'9 8.5
2016-Sep-22 03:33N 49°06' W 123°19'25 8.2
2016-Sep-22 00:32N 48°41' W 123°24'0 0.1
2016-Sep-21 23:33N 48°41' W 123°24'3 3.2
2016-Sep-21 22:33N 48°44' W 123°21'24 8.1
2016-Sep-21 19:33N 49°07' W 123°10'4 1.4
2016-Sep-21 16:33N 49°07' W 123°04'28 4.0
2016-Sep-21 09:32N 48°42' W 123°22'1010.1
2016-Sep-21 08:33N 48°52' W 123°20'21 6.9
2016-Sep-21 05:33N 49°09' W 123°02'0 0.0
2016-Sep-21 03:33N 49°09' W 123°02'0 0.0
2016-Sep-21 02:33N 49°09' W 123°02'0 0.0
2016-Sep-20 17:33N 49°09' W 123°02'12 3.9
2016-Sep-20 14:33N 49°06' W 123°19'10 9.7
2016-Sep-20 13:33N 48°56' W 123°18'15 4.6
2016-Sep-20 10:15N 48°41' W 123°24'12 7.1
2016-Sep-20 08:33N 48°53' W 123°18'1010.1
2016-Sep-20 07:33N 49°02' W 123°22'10 9.5
2016-Sep-20 06:33N 49°07' W 123°09'  
2016-Sep-17 18:38N 49°08' W 123°03'19 3.8
2016-Sep-17 13:33N 48°52' W 123°18'8 7.8
2016-Sep-17 12:33N 48°45' W 123°23'4 1.9
2016-Sep-17 10:33N 48°41' W 123°24'6 5.9
2016-Sep-17 09:32N 48°47' W 123°21'6 6.0
2016-Sep-17 08:33N 48°52' W 123°18'9 9.3
2016-Sep-17 07:33N 49°02' W 123°19'13 6.6
2016-Sep-17 05:33N 49°09' W 123°02'0 0.0
2016-Sep-17 04:33N 49°09' W 123°02'0 0.0
2016-Sep-17 00:33N 49°09' W 123°02'0 0.0
2016-Sep-16 17:33N 49°09' W 123°02'7 3.7
2016-Sep-16 15:33N 49°08' W 123°13'23 7.6
2016-Sep-16 12:33N 48°46' W 123°22'3 1.0
2016-Sep-16 09:33N 48°49' W 123°21'15 7.7
2016-Sep-16 07:33N 49°04' W 123°20'12 3.1
2016-Sep-16 03:33N 49°09' W 123°02'0 0.0
2016-Sep-16 02:33N 49°09' W 123°02'0 0.0
2016-Sep-16 00:33N 49°09' W 123°02'0 0.0
2016-Sep-15 22:33N 49°09' W 123°02'0 0.0
2016-Sep-15 21:33N 49°09' W 123°02'0 0.0
2016-Sep-15 20:33N 49°09' W 123°02'0 0.0
2016-Sep-15 18:33N 49°09' W 123°02'30 5.0
2016-Sep-15 12:32N 48°43' W 123°26'2 2.0
2016-Sep-15 11:33N 48°41' W 123°24'27 3.9
2016-Sep-15 04:33N 49°07' W 123°12'7 6.8
2016-Sep-15 03:33N 49°02' W 123°19'15 7.7
2016-Sep-15 01:33N 48°47' W 123°21'1 0.4
2016-Sep-14 22:33N 48°46' W 123°21'7 7.0
2016-Sep-14 21:33N 48°53' W 123°18'  
Track history (hours):
 
Tides and Currents Weather Stations Pressure Air Temp Water Temp Dewpoint Dewpoint Depression Visibility Wind Speed Wind Dir Waves Ship Positions

Arctic Taglu

Last reported at 2016-Sep-24 18:29 UTC. Time now 2016-Sep-25 07:07 UTC.
Position N 49°08' W 123°03'.

Length 33 m; draft 6 m.

Type: Tug. MMSI: 316003483.

Date/timePositionNaut miles runAvg speedWind from/ knotsBaromVisibWave heightAir tempDewpointWater temp
2016-Sep-24 18:29N 49°08' W 123°03'0 0.4
2016-Sep-24 17:33N 49°09' W 123°02'0 0.0
2016-Sep-24 16:33N 49°09' W 123°02'13 6.3
2016-Sep-24 14:33N 49°03' W 123°20'18 8.8
2016-Sep-24 12:33N 48°45' W 123°22'4 2.1
2016-Sep-24 10:33N 48°41' W 123°24'4 4.0
2016-Sep-24 09:33N 48°45' W 123°21'27 4.5
2016-Sep-24 03:33N 49°09' W 123°02'0 0.0
2016-Sep-24 02:33N 49°09' W 123°02'0 0.0
2016-Sep-24 01:33N 49°09' W 123°02'0 0.0
2016-Sep-24 00:33N 49°09' W 123°02'0 0.0
2016-Sep-23 19:33N 49°09' W 123°02'0 0.0
2016-Sep-23 17:33N 49°09' W 123°02'3 3.4
2016-Sep-23 16:33N 49°07' W 123°06'5 5.2
2016-Sep-23 15:33N 49°08' W 123°14'13 6.5
2016-Sep-23 13:33N 48°55' W 123°18'10 2.6
2016-Sep-23 09:33N 48°45' W 123°21'23 7.7
2016-Sep-23 06:33N 49°07' W 123°09'5 2.4
2016-Sep-23 04:33N 49°09' W 123°02'0 0.0
2016-Sep-23 03:33N 49°09' W 123°02'0 0.0
2016-Sep-23 02:33N 49°09' W 123°02'0 0.0
2016-Sep-23 01:33N 49°09' W 123°02'0 0.0
2016-Sep-23 00:33N 49°09' W 123°02'0 0.0
2016-Sep-22 23:33N 49°09' W 123°02'0 0.0
2016-Sep-22 20:33N 49°09' W 123°02'25 3.1
2016-Sep-22 12:33N 48°47' W 123°21'22 2.7
2016-Sep-22 04:33N 49°07' W 123°06'9 8.5
2016-Sep-22 03:33N 49°06' W 123°19'25 8.2
2016-Sep-22 00:32N 48°41' W 123°24'0 0.1
2016-Sep-21 23:33N 48°41' W 123°24'3 3.2
2016-Sep-21 22:33N 48°44' W 123°21'24 8.1
2016-Sep-21 19:33N 49°07' W 123°10'4 1.4
2016-Sep-21 16:33N 49°07' W 123°04'28 4.0
2016-Sep-21 09:32N 48°42' W 123°22'1010.1
2016-Sep-21 08:33N 48°52' W 123°20'21 6.9
2016-Sep-21 05:33N 49°09' W 123°02'0 0.0
2016-Sep-21 03:33N 49°09' W 123°02'0 0.0
2016-Sep-21 02:33N 49°09' W 123°02'0 0.0
2016-Sep-20 17:33N 49°09' W 123°02'12 3.9
2016-Sep-20 14:33N 49°06' W 123°19'10 9.7
2016-Sep-20 13:33N 48°56' W 123°18'15 4.6
2016-Sep-20 10:15N 48°41' W 123°24'12 7.1
2016-Sep-20 08:33N 48°53' W 123°18'1010.1
2016-Sep-20 07:33N 49°02' W 123°22'10 9.5
2016-Sep-20 06:33N 49°07' W 123°09'  
2016-Sep-17 18:38N 49°08' W 123°03'19 3.8
2016-Sep-17 13:33N 48°52' W 123°18'8 7.8
2016-Sep-17 12:33N 48°45' W 123°23'4 1.9
2016-Sep-17 10:33N 48°41' W 123°24'6 5.9
2016-Sep-17 09:32N 48°47' W 123°21'6 6.0
2016-Sep-17 08:33N 48°52' W 123°18'9 9.3
2016-Sep-17 07:33N 49°02' W 123°19'13 6.6
2016-Sep-17 05:33N 49°09' W 123°02'0 0.0
2016-Sep-17 04:33N 49°09' W 123°02'0 0.0
2016-Sep-17 00:33N 49°09' W 123°02'0 0.0
2016-Sep-16 17:33N 49°09' W 123°02'7 3.7
2016-Sep-16 15:33N 49°08' W 123°13'23 7.6
2016-Sep-16 12:33N 48°46' W 123°22'3 1.0
2016-Sep-16 09:33N 48°49' W 123°21'15 7.7
2016-Sep-16 07:33N 49°04' W 123°20'12 3.1
2016-Sep-16 03:33N 49°09' W 123°02'0 0.0
2016-Sep-16 02:33N 49°09' W 123°02'0 0.0
2016-Sep-16 00:33N 49°09' W 123°02'0 0.0
2016-Sep-15 22:33N 49°09' W 123°02'0 0.0
2016-Sep-15 21:33N 49°09' W 123°02'0 0.0
2016-Sep-15 20:33N 49°09' W 123°02'0 0.0
2016-Sep-15 18:33N 49°09' W 123°02'30 5.0
2016-Sep-15 12:32N 48°43' W 123°26'2 2.0
2016-Sep-15 11:33N 48°41' W 123°24'27 3.9
2016-Sep-15 04:33N 49°07' W 123°12'7 6.8
2016-Sep-15 03:33N 49°02' W 123°19'15 7.7
2016-Sep-15 01:33N 48°47' W 123°21'1 0.4
2016-Sep-14 22:33N 48°46' W 123°21'7 7.0
2016-Sep-14 21:33N 48°53' W 123°18'  

Dump ship's entire track history